Brighton Beach, South Carolina
Current Conditions -  °F | °C
As of 6:50 AM on Sunday 25 Jan 2015 (Local Time) from KHXD Reporting Station
Clear Clear  
Wind Chill: 33°   Ceiling: Unl
Heat Index: 39°   Visibility: 10mi
Dew Point: 32°   Wind: 9mph
Humidity: 75%   Direction: 240°WSW
Pressure: 30.03"   Gusts: NA
Location:  32.2133°N, 80.9033°W
Report Text: KHXD 251150Z 24008KT 10SM SKC 04/00 A3003
Loading
Personal Weather Stations






























Interactive Weather Map New forecast layout! Learn more

10-Day Weather Forecast

Advertisements
Track Severe Weather on mobile